Time;durP1;ratioP1;P1;durP2;ratioP2;P2;SDS_P1;SDS_P2;PMS_P1;PMS_P2;Temp;Humidity;BMP_temperature;BMP_pressure;BME280_temperature;BME280_humidity;BME280_pressure;Samples;Min_cycle;Max_cycle;Signal;HPM_P1;HPM_P2
2021/08/05 00:00:54;;;;;;;6.22;3.97;;;;;;;19.62;99.98;97266.16;5049843;28;20120;-81
2021/08/05 00:03:19;;;;;;;9.68;3.45;;;;;;;19.58;100.00;97270.84;5050532;28;20045;-78
2021/08/05 00:05:44;;;;;;;5.15;3.75;;;;;;;19.51;100.00;97262.44;5051614;28;20078;-79
2021/08/05 00:08:10;;;;;;;7.22;3.85;;;;;;;19.47;100.00;97273.47;5055906;28;20029;-78
2021/08/05 00:10:35;;;;;;;5.60;3.47;;;;;;;19.33;100.00;97283.47;5049549;28;20032;-80
2021/08/05 00:13:01;;;;;;;6.53;3.78;;;;;;;19.26;100.00;97273.06;5050314;28;20037;-82
2021/08/05 00:15:26;;;;;;;5.97;3.97;;;;;;;19.33;100.00;97284.25;5050161;28;20390;-79
2021/08/05 00:17:52;;;;;;;4.07;3.30;;;;;;;19.37;100.00;97292.66;5048754;28;20056;-79
2021/08/05 00:20:17;;;;;;;7.45;3.75;;;;;;;19.18;100.00;97288.75;5048616;28;20029;-81
2021/08/05 00:22:43;;;;;;;7.55;3.42;;;;;;;19.16;100.00;97287.50;5049755;28;20036;-80
2021/08/05 00:25:09;;;;;;;5.72;3.75;;;;;;;19.15;100.00;97288.69;5048665;28;20029;-79
2021/08/05 00:27:34;;;;;;;5.07;3.72;;;;;;;19.13;100.00;97286.28;5049998;28;20029;-82
2021/08/05 00:30:00;;;;;;;5.95;3.50;;;;;;;19.03;100.00;97281.34;5048911;28;20035;-79
2021/08/05 00:32:25;;;;;;;4.45;3.00;;;;;;;18.90;100.00;97263.25;5049445;28;20049;-80
2021/08/05 00:34:50;;;;;;;6.38;4.18;;;;;;;18.91;100.00;97264.88;5052949;28;20477;-81
2021/08/05 00:37:16;;;;;;;7.35;4.03;;;;;;;18.82;100.00;97252.41;5052762;28;20112;-81
2021/08/05 00:39:42;;;;;;;9.95;4.30;;;;;;;18.46;100.00;97229.47;5052625;28;20028;-82
2021/08/05 00:42:07;;;;;;;12.05;4.47;;;;;;;18.68;100.00;97241.81;5053893;28;20091;-83
2021/08/05 00:44:33;;;;;;;6.60;3.70;;;;;;;18.72;100.00;97242.72;5054071;28;20108;-82
2021/08/05 00:46:59;;;;;;;11.93;4.22;;;;;;;18.58;100.00;97250.72;5054932;28;20036;-82
2021/08/05 00:49:24;;;;;;;7.82;3.42;;;;;;;18.35;100.00;97258.13;5054960;28;20029;-81
2021/08/05 00:51:50;;;;;;;6.40;3.28;;;;;;;18.25;100.00;97261.47;5052846;28;20082;-81
2021/08/05 00:54:16;;;;;;;7.32;3.08;;;;;;;18.16;100.00;97259.72;5054018;28;20017;-81
2021/08/05 00:56:42;;;;;;;6.90;3.67;;;;;;;18.08;100.00;97262.66;5052524;28;20021;-83
2021/08/05 00:59:07;;;;;;;3.90;3.40;;;;;;;17.93;100.00;97286.44;5052826;28;20040;-83
2021/08/05 01:01:56;;;;;;;6.63;3.55;;;;;;;17.84;100.00;97299.66;5053517;28;20078;-84
2021/08/05 01:04:22;;;;;;;7.32;4.25;;;;;;;17.92;100.00;97300.63;5055274;28;20048;-81
2021/08/05 01:06:58;;;;;;;11.02;3.58;;;;;;;18.11;100.00;97286.84;5056838;28;20025;-83
2021/08/05 01:09:57;;;;;;;10.73;3.78;;;;;;;18.00;100.00;97278.31;5062465;28;20044;-81
2021/08/05 01:12:42;;;;;;;6.75;3.22;;;;;;;17.79;100.00;97261.22;5051830;28;20037;-82
2021/08/05 01:15:08;;;;;;;6.68;4.38;;;;;;;17.83;100.00;97280.66;5053276;28;20025;-81
2021/08/05 01:17:39;;;;;;;7.97;3.53;;;;;;;17.81;100.00;97286.56;5052234;28;20028;-81
2021/08/05 01:20:08;;;;;;;9.43;4.25;;;;;;;17.84;100.00;97277.53;5051887;28;20021;-79
2021/08/05 01:22:43;;;;;;;4.22;3.45;;;;;;;18.01;100.00;97279.91;5052112;28;20051;-82
2021/08/05 01:25:25;;;;;;;8.82;4.10;;;;;;;17.77;100.00;97255.22;5052219;28;20032;-86
2021/08/05 01:27:51;;;;;;;8.48;4.25;;;;;;;17.80;100.00;97257.28;5053380;28;20029;-83
2021/08/05 01:30:18;;;;;;;11.25;4.32;;;;;;;17.79;100.00;97221.69;5051686;28;20028;-83
2021/08/05 01:32:45;;;;;;;17.23;5.35;;;;;;;17.56;100.00;97205.75;5052754;28;20059;-81
2021/08/05 01:35:11;;;;;;;9.25;5.55;;;;;;;17.49;100.00;97188.94;5052019;28;20382;-83
2021/08/05 01:37:41;;;;;;;9.55;5.50;;;;;;;17.66;100.00;97196.09;5053459;28;20045;-83
2021/08/05 01:40:08;;;;;;;13.57;4.70;;;;;;;17.63;100.00;97189.31;5052556;28;20460;-82
2021/08/05 01:42:36;;;;;;;11.27;4.88;;;;;;;17.66;100.00;97176.72;5051308;28;20547;-83
2021/08/05 01:45:02;;;;;;;10.93;5.10;;;;;;;17.70;100.00;97163.75;5053035;28;20033;-86
2021/08/05 01:47:29;;;;;;;7.53;3.80;;;;;;;17.63;100.00;97150.59;5060290;28;20036;-82
2021/08/05 01:49:56;;;;;;;6.68;4.15;;;;;;;17.63;100.00;97144.25;5063349;28;20032;-84
2021/08/05 01:52:22;;;;;;;4.45;3.40;;;;;;;17.58;100.00;97136.22;5053621;28;20033;-81
2021/08/05 01:54:47;;;;;;;6.97;4.20;;;;;;;17.55;100.00;97148.81;5052823;28;20036;-82
2021/08/05 01:57:15;;;;;;;7.50;4.53;;;;;;;17.53;100.00;97155.84;5051897;28;20033;-82
2021/08/05 01:59:40;;;;;;;6.03;3.47;;;;;;;17.53;100.00;97153.06;5051239;28;20033;-85
2021/08/05 02:02:09;;;;;;;4.10;3.17;;;;;;;17.67;100.00;97165.28;5050889;28;20062;-82
2021/08/05 02:04:53;;;;;;;5.13;3.30;;;;;;;17.74;100.00;97170.19;5052701;28;20388;-83
2021/08/05 02:07:24;;;;;;;5.00;4.03;;;;;;;17.53;100.00;97158.59;5052654;28;20097;-82
2021/08/05 02:10:00;;;;;;;9.68;3.63;;;;;;;17.48;100.00;97165.19;5051565;28;20032;-83
2021/08/05 02:12:31;;;;;;;3.00;2.58;;;;;;;17.45;100.00;97160.38;5051570;28;20436;-82
2021/08/05 02:14:57;;;;;;;7.05;3.70;;;;;;;17.51;100.00;97149.88;5052671;28;20029;-82
2021/08/05 02:17:24;;;;;;;6.78;2.60;;;;;;;17.39;100.00;97147.19;5051261;28;20025;-84
2021/08/05 02:19:50;;;;;;;5.63;2.92;;;;;;;17.36;100.00;97125.81;5050775;28;20120;-83
2021/08/05 02:22:18;;;;;;;5.20;3.47;;;;;;;17.39;100.00;97136.13;5052176;28;20119;-84
2021/08/05 02:24:45;;;;;;;7.43;3.30;;;;;;;17.41;100.00;97139.38;5052275;28;20104;-83
2021/08/05 02:27:11;;;;;;;8.43;3.80;;;;;;;17.37;100.00;97157.81;5051148;28;20021;-84
2021/08/05 02:29:40;;;;;;;5.53;3.40;;;;;;;17.50;100.00;97143.53;5050543;28;20496;-81
2021/08/05 02:32:06;;;;;;;7.30;3.22;;;;;;;17.30;100.00;97117.00;5050329;28;20061;-83
2021/08/05 02:34:35;;;;;;;7.65;3.22;;;;;;;17.40;100.00;97121.16;5050515;28;20033;-83
2021/08/05 02:37:00;;;;;;;5.47;3.08;;;;;;;17.30;100.00;97116.19;5050996;28;20544;-83
2021/08/05 02:39:26;;;;;;;5.15;2.50;;;;;;;17.09;100.00;97095.19;5052322;28;20136;-82
2021/08/05 02:41:52;;;;;;;7.60;3.53;;;;;;;17.08;100.00;97073.41;5051801;28;20064;-85
2021/08/05 02:44:19;;;;;;;6.35;2.63;;;;;;;17.20;100.00;97078.06;5052063;28;20033;-83
2021/08/05 02:46:47;;;;;;;4.70;2.40;;;;;;;17.03;100.00;97066.22;5050953;28;20025;-83
2021/08/05 02:49:15;;;;;;;3.50;2.53;;;;;;;17.01;100.00;97051.94;5052407;28;20025;-83
2021/08/05 02:51:41;;;;;;;4.03;2.80;;;;;;;16.98;100.00;97032.53;5051098;28;20028;-84
2021/08/05 02:54:07;;;;;;;4.13;3.20;;;;;;;16.98;100.00;97047.13;5051590;28;20044;-83
2021/08/05 02:56:33;;;;;;;3.53;3.00;;;;;;;16.92;100.00;97043.06;5055504;28;20032;-84
2021/08/05 02:58:59;;;;;;;5.57;3.13;;;;;;;16.81;100.00;97022.69;5066408;28;20036;-83
2021/08/05 03:01:25;;;;;;;3.25;2.70;;;;;;;16.85;100.00;97018.00;5054629;28;20124;-82
2021/08/05 03:03:52;;;;;;;4.93;3.63;;;;;;;16.99;100.00;97018.34;5050395;28;20170;-83
2021/08/05 03:06:24;;;;;;;4.65;3.20;;;;;;;17.10;100.00;97002.81;5051891;28;20032;-84
2021/08/05 03:08:50;;;;;;;5.93;3.10;;;;;;;17.01;100.00;96993.91;5051195;28;20037;-82
2021/08/05 03:11:16;;;;;;;6.53;3.50;;;;;;;16.92;100.00;96982.28;5049963;28;20044;-87
2021/08/05 03:13:41;;;;;;;3.13;2.42;;;;;;;16.95;100.00;96972.47;5050079;28;20025;-84
2021/08/05 03:16:06;;;;;;;4.00;2.53;;;;;;;16.92;100.00;96979.50;5049745;28;20032;-84
2021/08/05 03:18:32;;;;;;;4.20;2.97;;;;;;;16.93;100.00;96980.31;5051343;28;20060;-82
2021/08/05 03:20:57;;;;;;;5.55;2.10;;;;;;;16.78;100.00;96964.59;5051498;28;20032;-83
2021/08/05 03:23:23;;;;;;;4.20;2.58;;;;;;;16.82;100.00;96955.19;5049419;28;20116;-83
2021/08/05 03:25:48;;;;;;;3.67;2.47;;;;;;;16.85;100.00;96957.25;5051024;28;20029;-84
2021/08/05 03:28:13;;;;;;;3.95;2.10;;;;;;;16.83;100.00;96958.75;5049630;28;20086;-81
2021/08/05 03:30:39;;;;;;;2.53;2.10;;;;;;;16.97;100.00;96970.16;5049455;28;20082;-80
2021/08/05 03:33:04;;;;;;;4.10;2.40;;;;;;;16.98;100.00;96969.78;5051161;28;20021;-81
2021/08/05 03:35:30;;;;;;;4.63;1.70;;;;;;;16.89;100.00;96974.72;5049396;28;20029;-83
2021/08/05 03:37:55;;;;;;;2.55;2.05;;;;;;;16.91;100.00;96980.69;5051048;28;20108;-81
2021/08/05 03:40:21;;;;;;;4.93;1.90;;;;;;;16.85;100.00;96979.34;5049624;28;20115;-82
2021/08/05 03:42:46;;;;;;;4.82;2.33;;;;;;;16.88;100.00;96978.66;5049527;28;20494;-82
2021/08/05 03:45:11;;;;;;;3.85;2.40;;;;;;;16.83;100.00;96975.34;5050720;28;20025;-81
2021/08/05 03:47:37;;;;;;;4.85;2.60;;;;;;;16.90;100.00;96992.09;5049355;28;20090;-81
2021/08/05 03:50:04;;;;;;;3.92;2.70;;;;;;;16.92;100.00;97007.13;5050705;28;20032;-82
2021/08/05 03:52:29;;;;;;;3.88;2.47;;;;;;;16.98;100.00;97002.94;5049928;28;20128;-81
2021/08/05 03:54:55;;;;;;;6.10;2.45;;;;;;;16.98;100.00;97004.88;5049101;28;20033;-84
2021/08/05 03:57:20;;;;;;;3.50;2.40;;;;;;;16.88;100.00;96989.69;5049055;28;20469;-82
2021/08/05 03:59:46;;;;;;;3.03;2.45;;;;;;;16.96;100.00;96996.16;5049150;28;20036;-81
2021/08/05 04:02:11;;;;;;;3.78;2.80;;;;;;;16.89;100.00;96980.22;5048715;28;20437;-82
2021/08/05 04:04:37;;;;;;;3.17;2.80;;;;;;;16.77;100.00;96988.63;5049241;28;20033;-82
2021/08/05 04:07:04;;;;;;;3.05;2.58;;;;;;;16.79;100.00;96986.31;5053124;28;20025;-81
2021/08/05 04:09:31;;;;;;;4.72;2.63;;;;;;;16.98;100.00;96991.06;5053639;28;20112;-82
2021/08/05 04:11:56;;;;;;;5.20;3.03;;;;;;;16.97;100.00;96979.25;5053509;28;20036;-83
2021/08/05 04:14:22;;;;;;;3.97;2.72;;;;;;;17.02;100.00;96973.44;5053046;28;20385;-82
2021/08/05 04:16:47;;;;;;;3.75;2.83;;;;;;;17.16;100.00;96983.19;5053552;28;20128;-81
2021/08/05 04:19:13;;;;;;;4.60;2.97;;;;;;;17.08;100.00;96985.78;5052799;28;20025;-82
2021/08/05 04:21:38;;;;;;;3.42;2.17;;;;;;;16.98;100.00;96983.59;5053285;28;20029;-81
2021/08/05 04:24:04;;;;;;;4.25;3.10;;;;;;;17.15;100.00;96998.97;5057752;28;20029;-81
2021/08/05 04:26:29;;;;;;;5.57;3.53;;;;;;;17.18;100.00;97014.03;5054154;28;20035;-83
2021/08/05 04:28:55;;;;;;;5.00;2.70;;;;;;;17.29;100.00;96998.50;5053005;28;20385;-86
2021/08/05 04:31:20;;;;;;;6.68;4.82;;;;;;;17.38;100.00;97019.25;5053568;28;20187;-82
2021/08/05 04:33:45;;;;;;;6.38;3.08;;;;;;;17.34;100.00;97017.53;5052862;28;20036;-83
2021/08/05 04:36:14;;;;;;;3.25;2.53;;;;;;;17.39;100.00;97014.47;5052734;28;20120;-81
2021/08/05 04:38:39;;;;;;;8.95;2.83;;;;;;;17.49;100.00;97013.91;5052835;28;20036;-82
2021/08/05 04:41:04;;;;;;;5.65;2.88;;;;;;;17.62;100.00;97012.66;5052949;28;20029;-81
2021/08/05 04:43:30;;;;;;;4.00;3.00;;;;;;;17.56;100.00;96998.31;5052697;28;20028;-82
2021/08/05 04:45:55;;;;;;;4.82;2.80;;;;;;;17.63;100.00;97003.19;5035911;28;20033;-82
2021/08/05 04:48:21;;;;;;;4.50;3.08;;;;;;;17.61;100.00;96994.44;5052809;28;20170;-83
2021/08/05 04:50:46;;;;;;;5.05;3.47;;;;;;;17.59;100.00;96988.47;5052777;28;20021;-82
2021/08/05 04:53:16;;;;;;;4.25;3.05;;;;;;;17.75;100.00;96980.91;5052367;28;20462;-82
2021/08/05 04:55:43;;;;;;;6.00;2.78;;;;;;;17.80;100.00;96947.41;5054246;28;20426;-85
2021/08/05 04:58:09;;;;;;;3.58;2.50;;;;;;;17.70;100.00;96942.47;5052091;28;20021;-83
2021/08/05 05:00:37;;;;;;;3.25;2.55;;;;;;;17.78;100.00;96919.31;5052679;28;20025;-82
2021/08/05 05:03:03;;;;;;;6.60;3.25;;;;;;;17.65;100.00;96906.81;5054213;28;20056;-82
2021/08/05 05:05:29;;;;;;;3.80;2.80;;;;;;;17.55;100.00;96893.56;5052601;28;20118;-82
2021/08/05 05:07:55;;;;;;;4.65;2.85;;;;;;;17.49;100.00;96886.72;5052802;28;20028;-82
2021/08/05 05:10:23;;;;;;;3.15;2.70;;;;;;;17.51;100.00;96885.19;5053880;28;20029;-81
2021/08/05 05:12:48;;;;;;;3.42;2.33;;;;;;;17.67;100.00;96889.84;5053610;28;20492;-81
2021/08/05 05:15:15;;;;;;;4.88;3.50;;;;;;;17.65;100.00;96874.41;5052715;28;20025;-83
2021/08/05 05:17:43;;;;;;;4.55;2.90;;;;;;;17.62;100.00;96863.28;5051560;28;20029;-82
2021/08/05 05:20:09;;;;;;;3.08;2.47;;;;;;;17.64;100.00;96863.72;5052067;28;20021;-83
2021/08/05 05:22:36;;;;;;;6.40;2.95;;;;;;;17.77;100.00;96859.59;5052182;28;20013;-82
2021/08/05 05:25:03;;;;;;;4.97;3.05;;;;;;;17.79;100.00;96857.28;5052025;28;20478;-83
2021/08/05 05:27:28;;;;;;;5.03;3.45;;;;;;;17.67;100.00;96855.47;5053177;28;20369;-84
2021/08/05 05:29:56;;;;;;;5.60;3.33;;;;;;;17.48;100.00;96854.69;5053008;28;20119;-83
2021/08/05 05:32:23;;;;;;;4.13;3.25;;;;;;;17.61;100.00;96851.41;5053101;28;20049;-86
2021/08/05 05:34:49;;;;;;;4.00;3.15;;;;;;;17.89;100.00;96856.66;5051904;28;20063;-83
2021/08/05 05:37:14;;;;;;;6.32;2.85;;;;;;;17.96;100.00;96867.03;5051768;28;20488;-82
2021/08/05 05:39:40;;;;;;;6.03;3.47;;;;;;;17.97;100.00;96875.00;5051258;28;20060;-83
2021/08/05 05:42:05;;;;;;;5.13;3.70;;;;;;;18.11;100.00;96880.75;5052045;28;20036;-80
2021/08/05 05:44:31;;;;;;;3.55;2.95;;;;;;;18.02;100.00;96876.63;5054083;28;20083;-83
2021/08/05 05:46:56;;;;;;;6.55;4.28;;;;;;;18.03;100.00;96884.56;5053154;28;20025;-84
2021/08/05 05:49:22;;;;;;;5.57;4.85;;;;;;;17.82;100.00;96891.72;5051587;28;20039;-83
2021/08/05 05:51:47;;;;;;;4.10;3.40;;;;;;;17.48;100.00;96894.22;5051193;28;20036;-82
2021/08/05 05:54:12;;;;;;;6.20;4.10;;;;;;;17.32;100.00;96895.47;5053164;28;20037;-82
2021/08/05 05:56:38;;;;;;;4.68;3.60;;;;;;;17.36;100.00;96912.91;5052062;28;20025;-82
2021/08/05 05:59:03;;;;;;;8.13;3.85;;;;;;;17.55;100.00;96918.47;5052756;28;20033;-82
2021/08/05 06:01:29;;;;;;;5.35;3.65;;;;;;;17.56;100.00;96909.00;5052530;28;20381;-82
2021/08/05 06:03:54;;;;;;;5.82;3.95;;;;;;;17.80;100.00;96908.66;5052389;28;20044;-81
2021/08/05 06:06:19;;;;;;;5.60;4.15;;;;;;;17.88;100.00;96898.53;5050984;28;20029;-80
2021/08/05 06:08:45;;;;;;;5.68;4.28;;;;;;;17.84;100.00;96886.59;5052861;28;20474;-85
2021/08/05 06:11:10;;;;;;;5.50;4.20;;;;;;;18.09;100.00;96898.91;5052176;28;20120;-83
2021/08/05 06:13:36;;;;;;;7.05;3.55;;;;;;;18.13;100.00;96897.78;5052686;28;20032;-82
2021/08/05 06:16:01;;;;;;;5.53;2.72;;;;;;;18.27;100.00;96894.44;5052384;28;20021;-83
2021/08/05 06:18:27;;;;;;;4.32;3.13;;;;;;;18.50;100.00;96900.78;5051269;28;20074;-81
2021/08/05 06:20:52;;;;;;;4.18;2.88;;;;;;;18.63;100.00;96901.38;5051643;28;20163;-82
2021/08/05 06:23:17;;;;;;;5.90;2.65;;;;;;;18.57;100.00;96897.31;5050547;28;20094;-82
2021/08/05 06:25:43;;;;;;;4.45;2.35;;;;;;;18.54;100.00;96898.06;5052370;28;20028;-81
2021/08/05 06:28:08;;;;;;;4.55;2.60;;;;;;;18.29;100.00;96902.41;5053755;28;20472;-81
2021/08/05 06:30:34;;;;;;;7.05;2.95;;;;;;;18.28;100.00;96903.56;5051299;28;20087;-82
2021/08/05 06:32:59;;;;;;;4.43;2.83;;;;;;;18.55;100.00;96894.09;5052234;28;20029;-82
2021/08/05 06:35:25;;;;;;;4.47;3.08;;;;;;;18.67;100.00;96896.66;5051390;28;20488;-81
2021/08/05 06:37:51;;;;;;;3.50;3.08;;;;;;;18.33;100.00;96889.38;5050218;28;20396;-80
2021/08/05 06:40:17;;;;;;;4.70;3.45;;;;;;;18.40;100.00;96904.16;5050324;28;20407;-82
2021/08/05 06:42:43;;;;;;;6.70;4.00;;;;;;;17.94;100.00;96897.88;5050270;28;20036;-82
2021/08/05 06:45:10;;;;;;;7.40;4.20;;;;;;;17.95;100.00;96888.38;5049927;28;20025;-81
2021/08/05 06:47:41;;;;;;;8.88;4.75;;;;;;;18.03;100.00;96884.56;5051415;28;20022;-82
2021/08/05 06:50:09;;;;;;;8.05;4.53;;;;;;;17.95;100.00;96891.13;5051146;28;20485;-84
2021/08/05 06:52:34;;;;;;;4.47;3.90;;;;;;;18.07;100.00;96885.41;5050321;28;20029;-84
2021/08/05 06:55:00;;;;;;;5.22;3.30;;;;;;;18.24;100.00;96884.09;5050557;28;20036;-82
2021/08/05 06:57:25;;;;;;;10.30;3.70;;;;;;;18.27;100.00;96879.78;5050475;28;20074;-80
2021/08/05 06:59:51;;;;;;;6.45;3.55;;;;;;;18.48;100.00;96882.91;5049607;28;20477;-81
2021/08/05 07:02:16;;;;;;;5.68;3.60;;;;;;;18.62;100.00;96888.69;5050076;28;20029;-81
2021/08/05 07:04:42;;;;;;;7.18;4.18;;;;;;;18.47;100.00;96892.38;5051108;28;20388;-82
2021/08/05 07:07:07;;;;;;;8.95;3.17;;;;;;;18.56;100.00;96881.88;5049933;28;20109;-80
2021/08/05 07:09:33;;;;;;;4.55;3.90;;;;;;;18.52;100.00;96894.84;5051214;28;20485;-81
2021/08/05 07:11:58;;;;;;;5.10;4.15;;;;;;;18.28;100.00;96896.06;5051216;28;20501;-84
2021/08/05 07:14:24;;;;;;;5.15;4.00;;;;;;;18.19;100.00;96904.63;5050083;28;20021;-83
2021/08/05 07:16:49;;;;;;;5.00;3.78;;;;;;;18.11;100.00;96886.28;5050296;28;20464;-83
2021/08/05 07:19:15;;;;;;;5.93;4.05;;;;;;;18.17;100.00;96901.41;5050190;28;20052;-85
2021/08/05 07:21:41;;;;;;;9.85;3.47;;;;;;;17.94;100.00;96891.53;5050770;28;20025;-82
2021/08/05 07:24:06;;;;;;;4.15;3.67;;;;;;;17.93;100.00;96892.69;5049736;28;20104;-81
2021/08/05 07:26:32;;;;;;;5.70;3.90;;;;;;;17.82;100.00;96895.28;5050733;28;20068;-84
2021/08/05 07:28:58;;;;;;;3.90;3.50;;;;;;;17.64;100.00;96889.41;5050025;28;20028;-81
2021/08/05 07:31:24;;;;;;;6.70;3.40;;;;;;;17.63;100.00;96895.31;5049495;28;20037;-82
2021/08/05 07:33:51;;;;;;;7.88;3.65;;;;;;;17.60;100.00;96885.00;5050021;28;20025;-81
2021/08/05 07:36:17;;;;;;;7.80;4.00;;;;;;;17.73;100.00;96883.63;5049841;28;20485;-81
2021/08/05 07:38:43;;;;;;;6.57;4.25;;;;;;;17.84;100.00;96872.75;5051276;28;20469;-82
2021/08/05 07:41:09;;;;;;;5.90;3.78;;;;;;;17.97;100.00;96876.94;5049403;28;20028;-82
2021/08/05 07:43:34;;;;;;;6.20;3.53;;;;;;;18.33;100.00;96878.31;5049990;28;20029;-82
2021/08/05 07:45:59;;;;;;;9.32;5.25;;;;;;;18.40;100.00;96876.47;5049789;28;20112;-82
2021/08/05 07:48:25;;;;;;;6.22;4.88;;;;;;;18.35;100.00;96884.28;5049839;28;20025;-81
2021/08/05 07:50:50;;;;;;;8.00;4.57;;;;;;;18.63;100.00;96887.53;5049993;28;20035;-81
2021/08/05 07:53:16;;;;;;;5.93;3.75;;;;;;;18.61;100.00;96901.72;5049747;28;20500;-84
2021/08/05 07:55:41;;;;;;;4.95;2.63;;;;;;;18.45;100.00;96898.28;5051219;28;20404;-82
2021/08/05 07:58:07;;;;;;;4.93;3.80;;;;;;;18.55;100.00;96911.53;5050809;28;20457;-84
2021/08/05 08:00:35;;;;;;;4.10;2.50;;;;;;;18.57;100.00;96911.19;5049705;28;20112;-82
2021/08/05 08:03:04;;;;;;;4.85;2.38;;;;;;;18.51;100.00;96915.44;5050774;28;20033;-82
2021/08/05 08:05:30;;;;;;;3.53;2.28;;;;;;;18.50;100.00;96930.44;5051699;28;20029;-82
2021/08/05 08:07:55;;;;;;;4.70;2.65;;;;;;;18.36;100.00;96924.63;5049302;28;20029;-82
2021/08/05 08:10:21;;;;;;;3.00;2.42;;;;;;;18.14;100.00;96934.56;5050311;28;20369;-83
2021/08/05 08:12:46;;;;;;;3.97;2.78;;;;;;;18.01;100.00;96933.94;5049314;28;20470;-80
2021/08/05 08:15:12;;;;;;;6.75;3.28;;;;;;;17.87;100.00;96936.47;5049340;28;20128;-82
2021/08/05 08:17:38;;;;;;;4.45;2.97;;;;;;;17.75;100.00;96952.44;5049031;28;20564;-82
2021/08/05 08:20:07;;;;;;;5.97;2.92;;;;;;;17.43;100.00;96954.53;5049393;28;20024;-82
2021/08/05 08:22:32;;;;;;;4.05;2.67;;;;;;;17.22;100.00;96954.09;5049449;28;20123;-81
2021/08/05 08:24:58;;;;;;;6.72;4.20;;;;;;;17.23;100.00;96969.53;5050251;28;20549;-81
2021/08/05 08:27:23;;;;;;;4.40;2.63;;;;;;;17.16;100.00;96950.03;5050122;28;20485;-80
2021/08/05 08:29:49;;;;;;;6.05;3.15;;;;;;;17.26;100.00;96963.28;5050549;28;20033;-82
2021/08/05 08:32:15;;;;;;;3.95;2.67;;;;;;;17.18;100.00;96962.31;5048507;28;20049;-81
2021/08/05 08:34:40;;;;;;;4.35;3.03;;;;;;;17.32;100.00;96981.19;5050686;28;20366;-84
2021/08/05 08:37:06;;;;;;;3.72;2.75;;;;;;;17.36;100.00;96979.28;5049273;28;20578;-81
2021/08/05 08:39:31;;;;;;;4.18;2.00;;;;;;;17.33;100.00;96978.03;5050907;28;20017;-80
2021/08/05 08:41:57;;;;;;;3.10;2.00;;;;;;;17.26;100.00;96979.88;5052523;28;20074;-83
2021/08/05 08:44:23;;;;;;;2.15;1.77;;;;;;;17.37;100.00;96992.75;5051656;28;20032;-81
2021/08/05 08:46:49;;;;;;;3.72;1.92;;;;;;;17.32;100.00;96979.19;5049211;28;20055;-82
2021/08/05 08:49:16;;;;;;;3.03;2.15;;;;;;;17.35;100.00;96981.25;5048911;28;20025;-80
2021/08/05 08:51:44;;;;;;;3.67;2.67;;;;;;;17.25;100.00;96983.78;5048591;28;20552;-81
2021/08/05 08:54:10;;;;;;;5.80;2.97;;;;;;;17.19;100.00;96974.19;5052225;28;20036;-81
2021/08/05 08:56:41;;;;;;;3.10;2.30;;;;;;;17.34;100.00;96987.13;5052046;28;20028;-80
2021/08/05 08:59:07;;;;;;;3.85;2.88;;;;;;;17.38;100.00;96976.97;5049406;28;20032;-82
2021/08/05 09:01:39;;;;;;;3.95;2.72;;;;;;;17.38;100.00;96985.25;5052499;28;20028;-82
2021/08/05 09:04:05;;;;;;;4.53;3.00;;;;;;;17.39;100.00;96981.31;5052679;28;20096;-83
2021/08/05 09:06:31;;;;;;;4.07;2.67;;;;;;;17.54;100.00;96988.75;5053562;28;20031;-83
2021/08/05 09:08:56;;;;;;;3.10;2.28;;;;;;;17.54;100.00;96967.41;5052257;28;20024;-81
2021/08/05 09:11:22;;;;;;;4.10;2.25;;;;;;;17.70;100.00;96970.13;5053681;28;20495;-81
2021/08/05 09:13:47;;;;;;;4.82;2.60;;;;;;;17.91;100.00;96975.28;5051975;28;20366;-80
2021/08/05 09:16:25;;;;;;;9.23;4.18;;;;;;;18.12;100.00;96970.94;5053575;28;20052;-84
2021/08/05 09:18:51;;;;;;;4.15;2.25;;;;;;;18.31;100.00;96969.25;5063507;28;20061;-81
2021/08/05 09:21:22;;;;;;;3.10;2.35;;;;;;;18.52;100.00;96975.19;5058617;28;20112;-82
2021/08/05 09:24:09;;;;;;;2.80;2.03;;;;;;;18.58;100.00;96973.69;5053063;28;20079;-81
2021/08/05 09:26:46;;;;;;;2.47;2.22;;;;;;;18.87;100.00;96980.47;5053418;28;20053;-81
2021/08/05 09:29:17;;;;;;;3.15;2.45;;;;;;;18.69;100.00;96971.91;5053234;28;20114;-82
2021/08/05 09:31:57;;;;;;;7.00;2.20;;;;;;;18.59;100.00;96981.66;5052822;28;20053;-83
2021/08/05 09:34:36;;;;;;;2.42;1.98;;;;;;;18.64;100.00;96977.75;5061442;28;20025;-83
2021/08/05 09:37:06;;;;;;;5.20;2.70;;;;;;;18.63;100.00;96985.28;5053272;28;20017;-83
2021/08/05 09:39:34;;;;;;;2.90;2.50;;;;;;;18.38;100.00;96994.31;5052016;28;20029;-82
2021/08/05 09:42:00;;;;;;;3.80;2.25;;;;;;;18.37;100.00;96993.50;5053290;28;20040;-84
2021/08/05 09:44:48;;;;;;;3.80;3.00;;;;;;;18.44;100.00;96993.63;5051876;28;20033;-84
2021/08/05 09:47:20;;;;;;;3.40;2.45;;;;;;;18.78;100.00;96994.59;5051240;28;20033;-83
2021/08/05 09:49:45;;;;;;;3.28;2.50;;;;;;;18.81;100.00;96990.28;5052637;28;20033;-83
2021/08/05 09:52:12;;;;;;;2.92;2.60;;;;;;;18.92;100.00;96994.81;5052963;28;20059;-82
2021/08/05 09:54:48;;;;;;;4.15;3.33;;;;;;;19.07;100.00;96998.63;5053047;28;20024;-82
2021/08/05 09:57:23;;;;;;;3.17;2.65;;;;;;;19.05;100.00;96990.66;5051457;28;20090;-83
2021/08/05 09:59:58;;;;;;;6.63;2.88;;;;;;;18.83;100.00;96988.75;5051659;28;20033;-83
2021/08/05 10:02:26;;;;;;;2.70;2.47;;;;;;;18.98;100.00;97001.63;5051376;28;20056;-82
2021/08/05 10:04:55;;;;;;;4.63;3.08;;;;;;;19.05;100.00;96996.19;5051103;28;20033;-82
2021/08/05 10:07:20;;;;;;;3.72;3.10;;;;;;;18.97;100.00;97000.06;5052789;28;20071;-83
2021/08/05 10:09:56;;;;;;;5.03;2.60;;;;;;;18.93;100.00;97001.97;5050765;28;20025;-83
2021/08/05 10:12:24;;;;;;;4.18;2.90;;;;;;;19.21;98.64;96993.25;5034143;28;20124;-84
2021/08/05 10:14:51;;;;;;;1.90;1.70;;;;;;;19.81;94.28;96994.06;5051142;28;20543;-82
2021/08/05 10:17:19;;;;;;;4.00;1.98;;;;;;;20.63;90.46;97007.63;5051751;28;20573;-82
2021/08/05 10:19:46;;;;;;;2.55;1.40;;;;;;;21.07;83.81;96998.44;5052560;28;20129;-82
2021/08/05 10:22:14;;;;;;;2.05;1.52;;;;;;;22.12;82.64;97009.31;5051907;28;20384;-82
2021/08/05 10:24:42;;;;;;;2.55;1.45;;;;;;;22.28;80.39;97001.41;5050795;28;20061;-81
2021/08/05 10:27:10;;;;;;;5.22;1.80;;;;;;;22.34;80.17;96999.81;5052083;28;20037;-79
2021/08/05 10:29:38;;;;;;;3.22;1.67;;;;;;;22.66;78.37;96982.34;5052178;28;20017;-80
2021/08/05 10:32:05;;;;;;;3.05;1.65;;;;;;;23.04;78.69;96994.69;5050398;28;20063;-80
2021/08/05 10:34:35;;;;;;;1.98;1.52;;;;;;;23.38;77.17;97001.41;5052119;28;20044;-80
2021/08/05 10:37:02;;;;;;;1.92;1.35;;;;;;;24.43;69.85;97005.78;5052277;28;20397;-78
2021/08/05 10:39:30;;;;;;;2.25;1.30;;;;;;;24.92;70.46;97007.47;5050574;28;20028;-78
2021/08/05 10:41:59;;;;;;;2.15;1.52;;;;;;;25.01;67.88;97010.56;5050098;28;20120;-78
2021/08/05 10:44:28;;;;;;;2.55;1.38;;;;;;;24.35;68.76;97004.25;5050487;28;20029;-78
2021/08/05 10:46:59;;;;;;;1.75;1.40;;;;;;;24.19;69.59;97003.94;5050577;28;20503;-78
2021/08/05 10:49:26;;;;;;;1.95;1.65;;;;;;;23.81;71.75;97002.09;5052336;28;20029;-78
2021/08/05 10:51:51;;;;;;;1.85;1.33;;;;;;;23.02;75.80;96992.31;5051810;28;20036;-79
2021/08/05 10:54:54;;;;;;;2.78;1.75;;;;;;;23.41;71.95;97007.03;5052525;28;20028;-79
2021/08/05 10:57:22;;;;;;;1.95;1.60;;;;;;;23.10;73.59;96998.66;5047477;28;20034;-78
2021/08/05 11:00:11;;;;;;;4.72;1.50;;;;;;;23.03;73.24;96991.09;5050515;28;20071;-78
2021/08/05 11:02:47;;;;;;;2.05;1.48;;;;;;;23.07;79.03;96997.47;5051282;28;20029;-81
2021/08/05 11:05:32;;;;;;;;;;;;;;;23.40;71.82;96996.25;5051184;28;20025;-79
2021/08/05 11:08:23;;;;;;;2.25;1.40;;;;;;;22.97;68.99;97008.63;5049961;28;19916;-79
2021/08/05 11:10:49;;;;;;;2.70;1.30;;;;;;;23.68;70.77;97003.75;5040783;28;20052;-80
2021/08/05 11:13:19;;;;;;;2.17;1.40;;;;;;;23.87;70.86;97006.09;5051488;28;20036;-79
2021/08/05 11:15:46;;;;;;;3.53;1.40;;;;;;;24.43;67.31;97005.00;5067232;28;20009;-80
2021/08/05 11:18:18;;;;;;;1.27;1.17;;;;;;;24.37;66.92;97006.66;5060767;28;20060;-78
2021/08/05 11:20:46;;;;;;;4.20;1.42;;;;;;;23.52;69.16;97001.41;5051156;28;20029;-79
2021/08/05 11:23:34;;;;;;;3.13;1.40;;;;;;;23.93;67.61;97007.25;5051272;28;21104;-78
2021/08/05 11:26:00;;;;;;;1.63;1.30;;;;;;;24.03;70.62;97009.19;5049638;28;20543;-79
2021/08/05 11:28:47;;;;;;;1.50;1.30;;;;;;;24.31;66.09;97008.25;5050934;28;20025;-77